Northwest Alabama Regional Airport
KMSL : now visible

Airfield :











YOU CAN JOIN US ON...

 
LOGIN :

Register | Disclaimer

   EN    FR    IT 

 









Legend :    VFR   Marginal VFR   IFR   Intensive IFR   Very Intensive IFR
Visi :
Ceiling :
>= 8 km
>= 3000ft
5 to 8 km
1000 to 3000 ft
1500m to 5 km
500 to 1000 ft
800 to 1500m
200 to 500 ft
< 800m
< 200 ft
Symbols :   Thunderstorms  Fog  Heavy snow  Heavy precipitations  Wind > 20 kt






- Airport Elevation : 551 ft
- IATA code : MSL


KMSL - Northwest Alabama Regional

CURRENT METAR :
  • 170353Z AUTO 13003KT 10SM CLR 07/05 A3006 RMK AO2 SLP179 T00670050 $

EXPIRED METARs :
  • 170253Z AUTO 00000KT 10SM CLR 09/07 A3007 RMK AO2 SLP182 T00890067 53003 $
  • 170153Z AUTO 00000KT 10SM CLR 10/07 A3006 RMK AO2 SLP179 T01000067 $

TAF KMSL
Valid from the 17 at 00:00 until the 18 at 00:00 UTC


162338Z 1700/1724 19007KT P6SM OVC060
FM170600 00000KT P6SM SCT025 BKN035
FM170900 VRB03KT P6SM BKN015
FM171200 VRB03KT P6SM BKN008 OVC015
FM171600 15005KT P6SM BKN015
FM172000 16006KT P6SM BKN025



MET'MAP, your aeronautical weather chart ! - Copyright ORBIFLY December 2007 - Disclaimer

ORBIFLY MET'MAP TEAM :

Programming & Development : Alexandra Zaïnal
Concept & original design : Baudouin d'Aumeries
Assistance for programming : Marc-Olivier Méhu
Technical & hardware support : Manuel Goepfert

Contact : metmap@orbifly.com




SOURCES & CREDITS :

   NOAA       Earth
Advisory